WetterOnline ( https://www.wetteronline.de )

Wetter aktuell Schwerin

Aktuelles Wetter: Schwerin (68m)

6-stündlich | Neueste Meldungen
Ortszeit Temperatur Wetter
Mo, 19.08. 20:00 19.7° C wolkenlos
Mo, 19.08. 14:00 19.7° C leicht bewölkt
Mo, 19.08. 8:00 15.0° C bedeckt
Mo, 19.08. 2:00 14.4° C wolkenlos
So, 18.08. 20:00 17.3° C bedeckt
So, 18.08. 14:00 19.8° C bedeckt
So, 18.08. 8:00 17.2° C Sprühregen
So, 18.08. 2:00 17.4° C bewölkt
Ortszeit Temperatur Wetter
Mo, 19.08. 22:30 16.6° C wolkig
Mo, 19.08. 22:20 16.6° C wolkig
Mo, 19.08. 22:10 17.0° C leicht bewölkt
Mo, 19.08. 22:00 17.3° C bewölkt
Mo, 19.08. 21:50 17.3° C bewölkt
Mo, 19.08. 21:40 17.1° C bewölkt
Mo, 19.08. 21:30 17.5° C bewölkt
Mo, 19.08. 21:00 18.1° C bewölkt
Mo, 19.08. 20:30 18.5° C fast wolkenlos
Mo, 19.08. 20:00 19.7° C wolkenlos
Mo, 19.08. 19:30 20.5° C wolkenlos
Ortszeit Relative Feuchte Sichtweite
Mo, 19.08. 20:00 52% 55 km
Mo, 19.08. 14:00 62% 45 km
Mo, 19.08. 8:00 96% 6 km
Mo, 19.08. 2:00 95% 15 km
So, 18.08. 20:00 91% 50 km
So, 18.08. 14:00 88% 30 km
So, 18.08. 8:00 96% 17 km
So, 18.08. 2:00 94% 22 km
Ortszeit Relative Feuchte Sichtweite
Mo, 19.08. 22:30 70% 40 km
Mo, 19.08. 22:20 70% -
Mo, 19.08. 22:10 67% -
Mo, 19.08. 22:00 66% 50 km
Mo, 19.08. 21:50 66% -
Mo, 19.08. 21:40 66% -
Mo, 19.08. 21:30 63% 45 km
Mo, 19.08. 21:00 61% 45 km
Mo, 19.08. 20:30 58% 65 km
Mo, 19.08. 20:00 52% 55 km
Mo, 19.08. 19:30 51% >70 km
Ortszeit Niederschlagsmenge Niederschlagsart
Mo, 19.08. 20:00 0.0 l/m2 in 12 Std. -
Mo, 19.08. 14:00 0.0 l/m2 in 6 Std. -
Mo, 19.08. 8:00 0.0 l/m2 in 12 Std. -
Mo, 19.08. 2:00 0.0 l/m2 in 6 Std. -
So, 18.08. 20:00 7 l/m2 in 12 Std. Regen
So, 18.08. 14:00 5 l/m2 in 6 Std. Regen
So, 18.08. 8:00 1 l/m2 in 12 Std. Regen
So, 18.08. 2:00 0.9 l/m2 in 6 Std. Regen
Ortszeit Niederschlagsmenge Niederschlagsart
Mo, 19.08. 22:30 0.0 l/m2 in 1 Std. -
Mo, 19.08. 22:20 keine Meldung -
Mo, 19.08. 22:10 keine Meldung -
Mo, 19.08. 22:00 0.0 l/m2 in 1 Std. -
Mo, 19.08. 21:50 keine Meldung -
Mo, 19.08. 21:40 keine Meldung -
Mo, 19.08. 21:30 0.0 l/m2 in 1 Std. -
Mo, 19.08. 21:00 0.0 l/m2 in 1 Std. -
Mo, 19.08. 20:30 0.0 l/m2 in 1 Std. -
Mo, 19.08. 20:00 0.0 l/m2 in 1 Std. -
Mo, 19.08. 19:30 0.0 l/m2 in 1 Std. -
Ortszeit Stärke Spitze Richtung
km/h Bft. km/h Grad Sektor
Mo, 19.08. 20:00 15 3 41 240° SW
Mo, 19.08. 14:00 18 3 40 240° SW
Mo, 19.08. 8:00 14 3 22 210° SW
Mo, 19.08. 2:00 13 3 26 230° SW
So, 18.08. 20:00 14 3 29 250° W
So, 18.08. 14:00 7 2 25 190° S
So, 18.08. 8:00 7 2 22 170° S
So, 18.08. 2:00 11 2 22 200° S
Ortszeit Stärke Spitze Richtung
km/h Bft. km/h Grad Sektor
Mo, 19.08. 22:30 11 2 14 210° SW
Mo, 19.08. 22:20 11 2 - 210° SW
Mo, 19.08. 22:10 13 3 - 210° SW
Mo, 19.08. 22:00 11 2 15 200° S
Mo, 19.08. 21:50 11 2 - 200° S
Mo, 19.08. 21:40 11 2 - 200° S
Mo, 19.08. 21:30 11 2 14 210° SW
Mo, 19.08. 21:00 11 2 22 230° SW
Mo, 19.08. 20:30 11 2 22 230° SW
Mo, 19.08. 20:00 15 3 26 240° SW
Mo, 19.08. 19:30 15 3 26 240° SW
Ortszeit Untergrenze Bedeckung Gattung
total tief tief mittel hoch
Mo, 19.08. 20:00 - 0/8 0/8 - - -
Mo, 19.08. 14:00 960 m 2/8 5/8 - - -
Mo, 19.08. 8:00 150 m 8/8 8/8 - - -
Mo, 19.08. 2:00 8100 m 0/8 0/8 - - -
So, 18.08. 20:00 270 m 8/8 8/8 - - -
So, 18.08. 14:00 270 m 8/8 8/8 - - -
So, 18.08. 8:00 90 m 8/8 8/8 - - -
So, 18.08. 2:00 510 m 8/8 7/8 - - -
Ortszeit Bedeckungsgrad in Achtel und Wolkenuntergrenze
Mo, 19.08. 22:30 1(2100m) 5(2700m)
Mo, 19.08. 22:20 1(2100m) 5(2700m)
Mo, 19.08. 22:10 2(2100m) 4(2700m)
Mo, 19.08. 22:00 3(2100m) 7(2700m)
Mo, 19.08. 21:50 3(2100m) 7(2700m)
Mo, 19.08. 21:40 1(2100m) 7(2700m)
Mo, 19.08. 21:30 7(2700m)
Mo, 19.08. 21:00 1(1500m) 7(2700m)
Mo, 19.08. 20:30 3(1500m) 4(2700m)
Mo, 19.08. 20:00 keine Wolken
Mo, 19.08. 19:30 keine Wolken
Ortszeit Luftdruck NN (hPa) Tendenz (hPa in 3 Std.)
Mo, 19.08. 20:00 1016 + 0,9
Mo, 19.08. 14:00 1015 + 1,5
Mo, 19.08. 8:00 1012 + 1,4
Mo, 19.08. 2:00 1010 + 1,2
So, 18.08. 20:00 1006 + 1,0
So, 18.08. 14:00 1005 - 0,8
So, 18.08. 8:00 1006 - 0,3
So, 18.08. 2:00 1007 - 0,3
Ortszeit Luftdruck NN (hPa) Tendenz (hPa in 3 Std.)
Mo, 19.08. 22:30 1018 + 1,4
Mo, 19.08. 22:20 1018 keine Meldung
Mo, 19.08. 22:10 1018 keine Meldung
Mo, 19.08. 22:00 1018 + 1,5
Mo, 19.08. 21:50 1018 keine Meldung
Mo, 19.08. 21:40 1017 keine Meldung
Mo, 19.08. 21:30 1017 + 1,3
Mo, 19.08. 21:00 1017 + 1,3
Mo, 19.08. 20:30 1017 + 1,0
Mo, 19.08. 20:00 1016 + 0,9
Mo, 19.08. 19:30 1016 + 0,8
Ortszeit Schneehöhe (cm)
Mo, 19.08. 20:00 -
Mo, 19.08. 14:00 -
Mo, 19.08. 8:00 -
Mo, 19.08. 2:00 -
So, 18.08. 20:00 -
So, 18.08. 14:00 -
So, 18.08. 8:00 -
So, 18.08. 2:00 -
Ortszeit Schneehöhe (cm)
Mo, 19.08. 22:30 -
Mo, 19.08. 22:20 -
Mo, 19.08. 22:10 -
Mo, 19.08. 22:00 -
Mo, 19.08. 21:50 -
Mo, 19.08. 21:40 -
Mo, 19.08. 21:30 -
Mo, 19.08. 21:00 -
Mo, 19.08. 20:30 -
Mo, 19.08. 20:00 -
Mo, 19.08. 19:30 -
Link zu dieser Seite / Seite empfehlen

Das Wetter in ...